Time;durP1;ratioP1;P1;durP2;ratioP2;P2;SDS_P1;SDS_P2;PMS_P1;PMS_P2;Temp;Humidity;BMP_temperature;BMP_pressure;BME280_temperature;BME280_humidity;BME280_pressure;Samples;Min_cycle;Max_cycle;Signal;HPM_P1;HPM_P2
2021/01/10 00:00:46;;;;;;;29.25;10.52;;;;;;;;;;5072988;28;20061;-77
2021/01/10 00:03:14;;;;;;;22.50;9.57;;;;;;;;;;5071749;28;20012;-77
2021/01/10 00:05:40;;;;;;;27.70;10.70;;;;;;;;;;5072698;28;20353;-77
2021/01/10 00:08:06;;;;;;;24.55;11.02;;;;;;;;;;5071458;28;20020;-77
2021/01/10 00:10:33;;;;;;;25.30;11.40;;;;;;;;;;5071325;28;20021;-77
2021/01/10 00:12:59;;;;;;;22.15;10.73;;;;;;;;;;5071164;28;20048;-77
2021/01/10 00:15:25;;;;;;;21.13;9.73;;;;;;;;;;5072786;28;20089;-77
2021/01/10 00:17:53;;;;;;;23.08;10.55;;;;;;;;;;5071107;28;20024;-76
2021/01/10 00:20:19;;;;;;;24.88;9.80;;;;;;;;;;5071379;28;20479;-77
2021/01/10 00:22:46;;;;;;;33.13;11.50;;;;;;;;;;5071099;28;20446;-77
2021/01/10 00:25:13;;;;;;;21.63;11.30;;;;;;;;;;5072893;28;20055;-77
2021/01/10 00:27:40;;;;;;;17.38;9.00;;;;;;;;;;5070985;28;20059;-77
2021/01/10 00:30:07;;;;;;;25.75;10.27;;;;;;;;;;5072271;28;20361;-77
2021/01/10 00:32:33;;;;;;;18.95;9.07;;;;;;;;;;5070928;28;20028;-77
2021/01/10 00:34:59;;;;;;;19.85;8.88;;;;;;;;;;5071230;28;20027;-77
2021/01/10 00:37:25;;;;;;;17.17;8.55;;;;;;;;;;5071198;28;20079;-76
2021/01/10 00:39:51;;;;;;;22.02;8.70;;;;;;;;;;5071613;28;20016;-77
2021/01/10 00:42:18;;;;;;;25.73;9.13;;;;;;;;;;5070894;28;20464;-76
2021/01/10 00:44:45;;;;;;;18.40;8.60;;;;;;;;;;5072204;28;20023;-77
2021/01/10 00:47:16;;;;;;;24.05;8.73;;;;;;;;;;5070954;28;20052;-76
2021/01/10 00:49:42;;;;;;;19.65;9.23;;;;;;;;;;5070692;28;20024;-76
2021/01/10 00:52:08;;;;;;;22.33;9.60;;;;;;;;;;5070900;28;20370;-77
2021/01/10 00:54:34;;;;;;;22.73;8.98;;;;;;;;;;5070681;28;20025;-77
2021/01/10 00:57:00;;;;;;;16.98;9.50;;;;;;;;;;5070950;28;20067;-77
2021/01/10 00:59:26;;;;;;;18.83;6.90;;;;;;;;;;5072229;28;20377;-77
2021/01/10 01:01:53;;;;;;;20.42;8.00;;;;;;;;;;5071758;28;20100;-77
2021/01/10 01:04:19;;;;;;;20.88;8.10;;;;;;;;;;5072025;28;20017;-77
2021/01/10 01:06:45;;;;;;;22.65;9.05;;;;;;;;;;5070461;28;20074;-77
2021/01/10 01:09:11;;;;;;;24.98;9.30;;;;;;;;;;5070784;28;20016;-77
2021/01/10 01:11:39;;;;;;;17.80;9.35;;;;;;;;;;5072139;28;20025;-76
2021/01/10 01:14:05;;;;;;;21.63;11.88;;;;;;;;;;5070702;28;20483;-77
2021/01/10 01:16:31;;;;;;;17.65;8.25;;;;;;;;;;5071864;28;20023;-77
2021/01/10 01:18:58;;;;;;;26.80;11.77;;;;;;;;;;5070718;28;20083;-77
2021/01/10 01:21:24;;;;;;;24.02;13.20;;;;;;;;;;5072066;28;20016;-76
2021/01/10 01:23:50;;;;;;;21.67;10.98;;;;;;;;;;5070470;28;20052;-76
2021/01/10 01:26:17;;;;;;;28.45;13.43;;;;;;;;;;5070645;28;20024;-76
2021/01/10 01:28:43;;;;;;;23.20;12.48;;;;;;;;;;5070273;28;20469;-76
2021/01/10 01:31:13;;;;;;;23.73;11.23;;;;;;;;;;5070670;28;20055;-76
2021/01/10 01:33:39;;;;;;;20.55;11.90;;;;;;;;;;5070460;28;20048;-77
2021/01/10 01:36:09;;;;;;;21.92;11.88;;;;;;;;;;5070373;28;20028;-77
2021/01/10 01:38:35;;;;;;;26.92;13.32;;;;;;;;;;5071650;28;20467;-76
2021/01/10 01:41:01;;;;;;;25.88;13.40;;;;;;;;;;5070281;28;20466;-77
2021/01/10 01:43:28;;;;;;;37.20;14.25;;;;;;;;;;5070590;28;20480;-76
2021/01/10 01:45:54;;;;;;;32.95;16.15;;;;;;;;;;5071623;28;20054;-76
2021/01/10 01:48:20;;;;;;;27.42;15.70;;;;;;;;;;5071715;28;20021;-76
2021/01/10 01:50:48;;;;;;;30.75;14.57;;;;;;;;;;5070239;28;20044;-76
2021/01/10 01:53:14;;;;;;;25.55;13.60;;;;;;;;;;5075279;28;20013;-76
2021/01/10 01:55:40;;;;;;;24.05;13.05;;;;;;;;;;5073963;28;20032;-76
2021/01/10 01:58:06;;;;;;;26.25;13.40;;;;;;;;;;5075341;28;20032;-78
2021/01/10 02:00:33;;;;;;;27.45;14.82;;;;;;;;;;5075527;28;20017;-76
2021/01/10 02:02:59;;;;;;;50.38;24.70;;;;;;;;;;5073876;28;20017;-76
2021/01/10 02:05:27;;;;;;;62.60;30.38;;;;;;;;;;5073789;28;20025;-76
2021/01/10 02:08:14;;;;;;;68.50;34.13;;;;;;;;;;5073577;28;20055;-76
2021/01/10 02:10:41;;;;;;;35.75;17.90;;;;;;;;;;5073475;28;20047;-76
2021/01/10 02:13:14;;;;;;;26.75;15.80;;;;;;;;;;5073846;28;20017;-77
2021/01/10 02:15:41;;;;;;;27.48;14.80;;;;;;;;;;5073500;28;20027;-77
2021/01/10 02:18:08;;;;;;;20.08;11.88;;;;;;;;;;5073704;28;20024;-77
2021/01/10 02:20:36;;;;;;;24.92;13.73;;;;;;;;;;5074992;28;20012;-77
2021/01/10 02:23:02;;;;;;;21.77;13.02;;;;;;;;;;5075208;28;20099;-76
2021/01/10 02:25:29;;;;;;;30.17;13.88;;;;;;;;;;5073557;28;20024;-77
2021/01/10 02:27:56;;;;;;;29.08;13.73;;;;;;;;;;5073236;28;20024;-77
2021/01/10 02:30:23;;;;;;;24.58;12.93;;;;;;;;;;5073421;28;20031;-76
2021/01/10 02:32:51;;;;;;;24.50;12.40;;;;;;;;;;5074290;28;20027;-77
2021/01/10 02:35:18;;;;;;;19.70;12.85;;;;;;;;;;5073223;28;20024;-77
2021/01/10 02:37:49;;;;;;;25.60;12.52;;;;;;;;;;5074501;28;20027;-77
2021/01/10 02:40:30;;;;;;;23.98;12.27;;;;;;;;;;5073282;28;20025;-76
2021/01/10 02:43:11;;;;;;;22.45;12.45;;;;;;;;;;5072355;28;20106;-77
2021/01/10 02:45:38;;;;;;;;;;;;;;;;;;5073581;28;20020;-77
2021/01/10 02:48:04;;;;;;;22.00;12.52;;;;;;;;;;5074345;28;19904;-77
2021/01/10 02:50:31;;;;;;;23.15;12.55;;;;;;;;;;5073117;28;20081;-77
2021/01/10 02:52:57;;;;;;;24.40;13.10;;;;;;;;;;5072533;28;20027;-76
2021/01/10 02:55:23;;;;;;;23.48;12.35;;;;;;;;;;5072892;28;20025;-77
2021/01/10 02:57:51;;;;;;;24.13;12.80;;;;;;;;;;5073744;28;20096;-76
2021/01/10 03:00:18;;;;;;;25.83;14.95;;;;;;;;;;5074234;28;20016;-77
2021/01/10 03:02:45;;;;;;;25.88;12.27;;;;;;;;;;5072306;28;20368;-76
2021/01/10 03:05:12;;;;;;;36.95;17.98;;;;;;;;;;5072941;28;20016;-77
2021/01/10 03:07:39;;;;;;;73.82;31.13;;;;;;;;;;5072652;28;20059;-77
2021/01/10 03:10:05;;;;;;;39.25;18.70;;;;;;;;;;5072701;28;20024;-76
2021/01/10 03:12:31;;;;;;;33.97;16.77;;;;;;;;;;5072613;28;20017;-77
2021/01/10 03:14:59;;;;;;;44.42;19.80;;;;;;;;;;5073390;28;20013;-76
2021/01/10 03:17:31;;;;;;;29.05;16.45;;;;;;;;;;5072587;28;20039;-76
2021/01/10 03:19:57;;;;;;;32.70;16.63;;;;;;;;;;5072336;28;20361;-76
2021/01/10 03:22:23;;;;;;;30.52;16.90;;;;;;;;;;5072284;28;20028;-76
2021/01/10 03:24:49;;;;;;;24.83;15.35;;;;;;;;;;5072180;28;20104;-76
2021/01/10 03:27:15;;;;;;;24.65;14.10;;;;;;;;;;5072375;28;20154;-77
2021/01/10 03:29:41;;;;;;;28.92;14.40;;;;;;;;;;5072063;28;20436;-76
2021/01/10 03:32:08;;;;;;;29.45;15.68;;;;;;;;;;5072225;28;20033;-76
2021/01/10 03:34:34;;;;;;;24.05;15.65;;;;;;;;;;5072307;28;20023;-77
2021/01/10 03:37:00;;;;;;;22.52;14.40;;;;;;;;;;5072116;28;20016;-77
2021/01/10 03:39:26;;;;;;;29.08;15.75;;;;;;;;;;5072057;28;20024;-77
2021/01/10 03:41:52;;;;;;;24.60;14.25;;;;;;;;;;5071565;28;20052;-77
2021/01/10 03:44:18;;;;;;;24.17;14.75;;;;;;;;;;5072070;28;20021;-77
2021/01/10 03:46:44;;;;;;;25.27;14.13;;;;;;;;;;5071598;28;20020;-77
2021/01/10 03:49:10;;;;;;;28.27;15.55;;;;;;;;;;5073020;28;20400;-77
2021/01/10 03:51:36;;;;;;;25.55;14.93;;;;;;;;;;5071829;28;20028;-76
2021/01/10 03:54:02;;;;;;;29.88;14.10;;;;;;;;;;5071497;28;20017;-76
2021/01/10 03:56:28;;;;;;;21.52;14.55;;;;;;;;;;5073221;28;20025;-77
2021/01/10 03:58:54;;;;;;;32.42;15.73;;;;;;;;;;5071405;28;20033;-77
2021/01/10 04:01:20;;;;;;;22.98;14.68;;;;;;;;;;5072946;28;20027;-76
2021/01/10 04:03:46;;;;;;;25.38;15.23;;;;;;;;;;5071513;28;20044;-77
2021/01/10 04:06:12;;;;;;;25.40;16.45;;;;;;;;;;5071666;28;20473;-77
2021/01/10 04:08:38;;;;;;;26.20;15.75;;;;;;;;;;5071505;28;20032;-77
2021/01/10 04:11:04;;;;;;;29.58;16.40;;;;;;;;;;5071327;28;20032;-77
2021/01/10 04:13:30;;;;;;;21.95;14.25;;;;;;;;;;5072832;28;20040;-77
2021/01/10 04:15:56;;;;;;;24.10;15.73;;;;;;;;;;5071975;28;20043;-77
2021/01/10 04:18:22;;;;;;;24.90;15.02;;;;;;;;;;5071427;28;20066;-77
2021/01/10 04:20:48;;;;;;;22.30;15.02;;;;;;;;;;5072558;28;20394;-77
2021/01/10 04:23:14;;;;;;;24.38;15.60;;;;;;;;;;5071323;28;20025;-77
2021/01/10 04:25:40;;;;;;;22.92;13.07;;;;;;;;;;5071306;28;20020;-77
2021/01/10 04:28:06;;;;;;;24.52;14.27;;;;;;;;;;5072328;28;20055;-77
2021/01/10 04:30:32;;;;;;;27.20;16.30;;;;;;;;;;5072591;28;20028;-77
2021/01/10 04:32:58;;;;;;;24.65;14.80;;;;;;;;;;5070983;28;20024;-76
2021/01/10 04:35:24;;;;;;;24.83;14.70;;;;;;;;;;5072500;28;20043;-76
2021/01/10 04:37:50;;;;;;;23.55;15.77;;;;;;;;;;5071909;28;20024;-76
2021/01/10 04:40:17;;;;;;;31.85;16.73;;;;;;;;;;5071052;28;20022;-76
2021/01/10 04:42:44;;;;;;;31.13;15.45;;;;;;;;;;5071980;28;20128;-77
2021/01/10 04:45:11;;;;;;;30.00;16.35;;;;;;;;;;5071228;28;20054;-76
2021/01/10 04:47:37;;;;;;;32.30;17.92;;;;;;;;;;5070965;28;20028;-76
2021/01/10 04:50:03;;;;;;;31.90;16.13;;;;;;;;;;5072004;28;20017;-75
2021/01/10 04:52:30;;;;;;;26.35;15.02;;;;;;;;;;5072379;28;20039;-77
2021/01/10 04:54:57;;;;;;;27.52;15.82;;;;;;;;;;5070757;28;20024;-77
2021/01/10 04:57:24;;;;;;;30.10;15.07;;;;;;;;;;5071058;28;20024;-77
2021/01/10 04:59:51;;;;;;;28.88;14.68;;;;;;;;;;5070652;28;20013;-76
2021/01/10 05:02:23;;;;;;;25.45;14.82;;;;;;;;;;5072310;28;20021;-77
2021/01/10 05:04:49;;;;;;;28.55;14.95;;;;;;;;;;5070729;28;20024;-77
2021/01/10 05:07:15;;;;;;;26.02;14.43;;;;;;;;;;5070829;28;20032;-76
2021/01/10 05:09:42;;;;;;;21.08;14.45;;;;;;;;;;5070891;28;20024;-77
2021/01/10 05:12:08;;;;;;;27.42;14.60;;;;;;;;;;5070599;28;20043;-77
2021/01/10 05:14:34;;;;;;;24.90;15.13;;;;;;;;;;5070939;28;20078;-76
2021/01/10 05:17:00;;;;;;;30.73;15.55;;;;;;;;;;5072034;28;20154;-76
2021/01/10 05:19:29;;;;;;;27.30;15.98;;;;;;;;;;5071850;28;20586;-77
2021/01/10 05:21:55;;;;;;;30.83;15.65;;;;;;;;;;5070192;28;20029;-77
2021/01/10 05:24:21;;;;;;;24.83;15.38;;;;;;;;;;5070750;28;20020;-76
2021/01/10 05:26:47;;;;;;;29.77;15.27;;;;;;;;;;5074832;28;20073;-77
2021/01/10 05:29:14;;;;;;;27.70;15.18;;;;;;;;;;5074676;28;20043;-77
2021/01/10 05:31:43;;;;;;;27.35;15.10;;;;;;;;;;5075937;28;20016;-77
2021/01/10 05:34:17;;;;;;;28.52;14.85;;;;;;;;;;5075924;28;20398;-77
2021/01/10 05:36:43;;;;;;;26.17;14.48;;;;;;;;;;5074254;28;20021;-77
2021/01/10 05:39:22;;;;;;;28.38;15.23;;;;;;;;;;5074216;28;20032;-77
2021/01/10 05:41:57;;;;;;;25.35;15.38;;;;;;;;;;5073709;28;20067;-77
2021/01/10 05:44:27;;;;;;;30.30;15.98;;;;;;;;;;5074454;28;20461;-77
2021/01/10 05:47:02;;;;;;;29.80;16.05;;;;;;;;;;5074105;28;20476;-77
2021/01/10 05:49:29;;;;;;;26.60;14.82;;;;;;;;;;5075953;28;20157;-77
2021/01/10 05:51:55;;;;;;;26.70;15.50;;;;;;;;;;5074004;28;20070;-77
2021/01/10 05:54:38;;;;;;;28.27;14.68;;;;;;;;;;5074065;28;20356;-77
2021/01/10 05:57:05;;;;;;;22.75;14.80;;;;;;;;;;5075164;28;20017;-77
2021/01/10 05:59:33;;;;;;;22.88;13.93;;;;;;;;;;5074050;28;20359;-77
2021/01/10 06:01:59;;;;;;;27.02;13.70;;;;;;;;;;5073818;28;20043;-77
2021/01/10 06:04:25;;;;;;;30.77;15.05;;;;;;;;;;5074016;28;20449;-77
2021/01/10 06:06:51;;;;;;;29.60;15.60;;;;;;;;;;5073751;28;20025;-77
2021/01/10 06:09:17;;;;;;;24.75;15.73;;;;;;;;;;5073916;28;20448;-77
2021/01/10 06:11:43;;;;;;;70.68;35.60;;;;;;;;;;5075163;28;20021;-76
2021/01/10 06:14:11;;;;;;;57.22;25.05;;;;;;;;;;5073592;28;20016;-76
2021/01/10 06:16:38;;;;;;;29.95;17.40;;;;;;;;;;5075158;28;20100;-76
2021/01/10 06:19:05;;;;;;;24.65;15.23;;;;;;;;;;5074871;28;20024;-76
2021/01/10 06:21:32;;;;;;;26.42;15.35;;;;;;;;;;5073595;28;20361;-76
2021/01/10 06:24:05;;;;;;;28.17;14.88;;;;;;;;;;5070455;28;20029;-76
2021/01/10 06:26:32;;;;;;;25.77;14.40;;;;;;;;;;5055099;28;20017;-76
2021/01/10 06:29:09;;;;;;;26.45;14.68;;;;;;;;;;5054501;28;20033;-76
2021/01/10 06:31:35;;;;;;;25.00;14.07;;;;;;;;;;5054839;28;20103;-76
2021/01/10 06:34:03;;;;;;;31.88;16.15;;;;;;;;;;5053235;28;20083;-76
2021/01/10 06:36:30;;;;;;;26.95;14.60;;;;;;;;;;5053138;28;20029;-76
2021/01/10 06:39:00;;;;;;;29.23;15.45;;;;;;;;;;5053855;28;20032;-77
2021/01/10 06:41:35;;;;;;;26.73;15.65;;;;;;;;;;5054128;28;20048;-77
2021/01/10 06:44:05;;;;;;;26.02;14.32;;;;;;;;;;5053029;28;20078;-76
2021/01/10 06:46:32;;;;;;;25.15;15.27;;;;;;;;;;5054811;28;20020;-77
2021/01/10 06:49:00;;;;;;;24.42;13.85;;;;;;;;;;5054155;28;20017;-77
2021/01/10 06:51:28;;;;;;;26.08;14.32;;;;;;;;;;5053009;28;20052;-77
2021/01/10 06:53:54;;;;;;;26.27;14.05;;;;;;;;;;5052739;28;20160;-77
2021/01/10 06:56:21;;;;;;;23.50;14.02;;;;;;;;;;5052996;28;20020;-77
2021/01/10 06:59:03;;;;;;;35.22;15.38;;;;;;;;;;5054244;28;20021;-77
2021/01/10 07:01:48;;;;;;;25.25;13.93;;;;;;;;;;5052883;28;20040;-77
2021/01/10 07:04:14;;;;;;;24.25;14.15;;;;;;;;;;5052630;28;20028;-77
2021/01/10 07:06:47;;;;;;;19.42;13.70;;;;;;;;;;5054148;28;20051;-77
2021/01/10 07:09:13;;;;;;;25.80;14.32;;;;;;;;;;5052428;28;20041;-77
2021/01/10 07:11:40;;;;;;;24.95;13.98;;;;;;;;;;5052729;28;20100;-77
2021/01/10 07:14:06;;;;;;;23.25;13.48;;;;;;;;;;5052504;28;20025;-77
2021/01/10 07:16:36;;;;;;;27.30;14.25;;;;;;;;;;5052595;28;20092;-77
2021/01/10 07:19:11;;;;;;;24.48;14.02;;;;;;;;;;5052453;28;20017;-77
2021/01/10 07:21:41;;;;;;;28.17;15.45;;;;;;;;;;5053855;28;20017;-78
2021/01/10 07:24:16;;;;;;;31.00;14.55;;;;;;;;;;5052255;28;20025;-77
2021/01/10 07:26:45;;;;;;;28.20;13.82;;;;;;;;;;5052447;28;20021;-77
2021/01/10 07:29:30;;;;;;;26.08;15.23;;;;;;;;;;5052182;28;20098;-77
2021/01/10 07:32:04;;;;;;;27.92;14.63;;;;;;;;;;5053471;28;20025;-77
2021/01/10 07:34:37;;;;;;;28.50;13.57;;;;;;;;;;5052293;28;20021;-77
2021/01/10 07:37:04;;;;;;;26.15;14.32;;;;;;;;;;5053457;28;20050;-77
2021/01/10 07:39:35;;;;;;;29.35;15.25;;;;;;;;;;5053302;28;20025;-77
2021/01/10 07:42:11;;;;;;;23.80;14.55;;;;;;;;;;5051633;28;20127;-77
2021/01/10 07:44:50;;;;;;;25.63;14.70;;;;;;;;;;5053378;28;20043;-77
2021/01/10 07:47:16;;;;;;;22.58;14.30;;;;;;;;;;5051766;28;20036;-77
2021/01/10 07:49:49;;;;;;;26.50;14.10;;;;;;;;;;5053472;28;20032;-77
2021/01/10 07:52:16;;;;;;;22.02;14.57;;;;;;;;;;5051669;28;20028;-77
2021/01/10 07:54:50;;;;;;;28.00;15.02;;;;;;;;;;5051868;28;20017;-77
2021/01/10 07:57:26;;;;;;;32.55;15.43;;;;;;;;;;5051575;28;20481;-77
2021/01/10 08:00:25;;;;;;;28.02;14.70;;;;;;;;;;5051873;28;20025;-77
2021/01/10 08:02:58;;;;;;;26.88;16.95;;;;;;;;;;5050907;28;20025;-76
2021/01/10 08:05:28;;;;;;;28.15;15.10;;;;;;;;;;5053148;28;20103;-77
2021/01/10 08:07:56;;;;;;;28.30;17.30;;;;;;;;;;5051671;28;20028;-77
2021/01/10 08:10:22;;;;;;;27.58;17.05;;;;;;;;;;5051642;28;20032;-76
2021/01/10 08:12:48;;;;;;;27.02;16.02;;;;;;;;;;5052929;28;20021;-77
2021/01/10 08:15:15;;;;;;;25.73;15.95;;;;;;;;;;5051122;28;20028;-77
2021/01/10 08:17:41;;;;;;;26.70;15.63;;;;;;;;;;5053000;28;20021;-77
2021/01/10 08:20:08;;;;;;;27.00;16.13;;;;;;;;;;5051212;28;20023;-75
2021/01/10 08:22:34;;;;;;;28.90;15.57;;;;;;;;;;5051366;28;20048;-77
2021/01/10 08:25:04;;;;;;;30.20;14.73;;;;;;;;;;5058076;28;20024;-76
2021/01/10 08:27:30;;;;;;;29.95;16.30;;;;;;;;;;5071362;28;20127;-75
2021/01/10 08:29:57;;;;;;;35.90;17.98;;;;;;;;;;5071371;28;20077;-76
2021/01/10 08:32:23;;;;;;;39.92;18.83;;;;;;;;;;5072082;28;20473;-76
2021/01/10 08:34:51;;;;;;;37.58;17.95;;;;;;;;;;5072553;28;20021;-76
2021/01/10 08:37:20;;;;;;;37.28;20.88;;;;;;;;;;5072252;28;20447;-76
2021/01/10 08:39:56;;;;;;;28.45;18.73;;;;;;;;;;5072358;28;20069;-76
2021/01/10 08:42:22;;;;;;;33.17;19.42;;;;;;;;;;5072205;28;20045;-76
2021/01/10 08:44:48;;;;;;;39.55;23.00;;;;;;;;;;5061744;28;20013;-77
2021/01/10 08:47:14;;;;;;;35.30;20.23;;;;;;;;;;5059663;28;20469;-78
2021/01/10 08:49:41;;;;;;;40.42;20.13;;;;;;;;;;5060741;28;20024;-77
2021/01/10 08:52:07;;;;;;;33.83;19.70;;;;;;;;;;5059779;28;20021;-77
2021/01/10 08:54:36;;;;;;;33.20;18.13;;;;;;;;;;5061754;28;20021;-79
2021/01/10 08:57:03;;;;;;;25.08;15.57;;;;;;;;;;5060601;28;20017;-78
2021/01/10 08:59:35;;;;;;;24.55;17.70;;;;;;;;;;5061645;28;20128;-78
2021/01/10 09:02:08;;;;;;;32.85;18.38;;;;;;;;;;5061300;28;20014;-78
2021/01/10 09:04:44;;;;;;;31.17;19.92;;;;;;;;;;5059995;28;20025;-78
2021/01/10 09:07:10;;;;;;;28.85;18.52;;;;;;;;;;5062472;28;20020;-78
2021/01/10 09:09:36;;;;;;;29.48;18.15;;;;;;;;;;5061222;28;20017;-78
2021/01/10 09:12:21;;;;;;;37.83;20.67;;;;;;;;;;5058736;28;20075;-78
2021/01/10 09:14:53;;;;;;;33.28;21.08;;;;;;;;;;5054944;28;20044;-78
2021/01/10 09:17:22;;;;;;;24.13;16.60;;;;;;;;;;5050505;28;20029;-78
2021/01/10 09:19:52;;;;;;;22.25;15.13;;;;;;;;;;5050648;28;20094;-78
2021/01/10 09:22:18;;;;;;;51.33;38.88;;;;;;;;;;5051729;28;20499;-78
2021/01/10 09:24:44;;;;;;;24.30;16.15;;;;;;;;;;5050500;28;20024;-78
2021/01/10 09:27:10;;;;;;;26.20;16.67;;;;;;;;;;5050235;28;20021;-78
2021/01/10 09:29:36;;;;;;;26.63;17.13;;;;;;;;;;5050309;28;20060;-77
2021/01/10 09:32:03;;;;;;;22.92;13.48;;;;;;;;;;5050085;28;20043;-78
2021/01/10 09:34:29;;;;;;;23.15;16.33;;;;;;;;;;5050279;28;20024;-78
2021/01/10 09:37:05;;;;;;;32.03;17.58;;;;;;;;;;5058106;28;20531;-78
2021/01/10 09:39:51;;;;;;;33.53;16.35;;;;;;;;;;5060028;28;20316;-78
2021/01/10 09:42:19;;;;;;;23.83;16.13;;;;;;;;;;5051420;28;20067;-78
2021/01/10 09:44:53;;;;;;;23.20;15.10;;;;;;;;;;5050379;28;20017;-78
2021/01/10 09:47:32;;;;;;;22.25;15.43;;;;;;;;;;5051365;28;20037;-78
2021/01/10 09:49:58;;;;;;;22.35;14.95;;;;;;;;;;5050368;28;20112;-79
2021/01/10 09:52:24;;;;;;;22.20;15.07;;;;;;;;;;5050187;28;20055;-78
2021/01/10 09:54:57;;;;;;;25.02;16.65;;;;;;;;;;5051390;28;20049;-79
2021/01/10 09:57:23;;;;;;;26.45;16.05;;;;;;;;;;5050133;28;20033;-78
2021/01/10 09:59:55;;;;;;;31.40;16.13;;;;;;;;;;5051654;28;20120;-78
2021/01/10 10:02:24;;;;;;;19.00;13.38;;;;;;;;;;5050060;28;20027;-79
2021/01/10 10:04:51;;;;;;;19.38;13.10;;;;;;;;;;5050203;28;20389;-76
2021/01/10 10:07:34;;;;;;;17.98;12.85;;;;;;;;;;5051359;28;20013;-78
2021/01/10 10:10:01;;;;;;;18.30;12.57;;;;;;;;;;5051670;28;20017;-78
2021/01/10 10:12:27;;;;;;;17.73;11.82;;;;;;;;;;5050668;28;20059;-77
2021/01/10 10:14:56;;;;;;;18.70;12.23;;;;;;;;;;5053924;28;20017;-76
2021/01/10 10:17:23;;;;;;;18.67;12.68;;;;;;;;;;5053602;28;20060;-77
2021/01/10 10:19:49;;;;;;;20.35;12.15;;;;;;;;;;5055033;28;20074;-77
2021/01/10 10:22:19;;;;;;;20.20;13.48;;;;;;;;;;5053479;28;20052;-78
2021/01/10 10:24:45;;;;;;;19.55;13.45;;;;;;;;;;5053449;28;20013;-78
2021/01/10 10:27:11;;;;;;;20.40;13.40;;;;;;;;;;5062580;28;20017;-78
2021/01/10 10:29:37;;;;;;;22.50;13.85;;;;;;;;;;5062676;28;20400;-78
2021/01/10 10:32:03;;;;;;;19.88;14.65;;;;;;;;;;5061229;28;20013;-78
2021/01/10 10:34:30;;;;;;;23.45;13.30;;;;;;;;;;5063279;28;20019;-77
2021/01/10 10:36:59;;;;;;;22.85;14.13;;;;;;;;;;5064618;28;20025;-77
2021/01/10 10:39:26;;;;;;;24.50;14.63;;;;;;;;;;5064344;28;20095;-76
2021/01/10 10:41:52;;;;;;;20.33;15.60;;;;;;;;;;5063917;28;20056;-78
2021/01/10 10:44:18;;;;;;;18.52;14.93;;;;;;;;;;5060621;28;20473;-78
2021/01/10 10:46:45;;;;;;;22.17;15.07;;;;;;;;;;5062111;28;20376;-78
2021/01/10 10:49:11;;;;;;;25.83;15.70;;;;;;;;;;5062209;28;20032;-78
2021/01/10 10:51:37;;;;;;;24.58;16.05;;;;;;;;;;5062981;28;20414;-79
2021/01/10 10:54:03;;;;;;;22.63;15.27;;;;;;;;;;5061066;28;20047;-79
2021/01/10 10:56:36;;;;;;;22.88;15.50;;;;;;;;;;5063289;28;20056;-81
2021/01/10 10:59:02;;;;;;;22.33;15.25;;;;;;;;;;5059131;28;20070;-85
2021/01/10 11:01:42;;;;;;;28.58;16.77;;;;;;;;;;5073662;28;20229;-82
2021/01/10 11:04:08;;;;;;;24.52;16.27;;;;;;;;;;5073807;28;20094;-84
2021/01/10 11:06:34;;;;;;;18.45;14.18;;;;;;;;;;5076441;28;20023;-80
2021/01/10 11:09:01;;;;;;;23.35;16.17;;;;;;;;;;5075110;28;20032;-82
2021/01/10 11:11:34;;;;;;;22.80;15.43;;;;;;;;;;5073669;28;20021;-82
2021/01/10 11:14:00;;;;;;;23.35;14.60;;;;;;;;;;5075743;28;20031;-83
2021/01/10 11:16:33;;;;;;;22.25;14.05;;;;;;;;;;5073707;28;20115;-79
2021/01/10 11:19:00;;;;;;;18.83;14.35;;;;;;;;;;5073396;28;20028;-78
2021/01/10 11:21:27;;;;;;;18.65;12.73;;;;;;;;;;5074478;28;20024;-78
2021/01/10 11:23:53;;;;;;;17.17;12.43;;;;;;;;;;5073315;28;20379;-79
2021/01/10 11:26:19;;;;;;;17.30;11.88;;;;;;;;;;5056199;28;20441;-81
2021/01/10 11:28:45;;;;;;;17.52;12.20;;;;;;;;;;5053424;28;20036;-81
2021/01/10 11:31:11;;;;;;;22.25;12.95;;;;;;;;;;5051711;28;20013;-83
2021/01/10 11:33:37;;;;;;;19.63;12.98;;;;;;;;;;5053093;28;20454;-80
2021/01/10 11:36:05;;;;;;;19.23;11.73;;;;;;;;;;5051525;28;20024;-83
2021/01/10 11:38:31;;;;;;;19.95;12.35;;;;;;;;;;5052231;28;20036;-80
2021/01/10 11:40:57;;;;;;;19.13;10.98;;;;;;;;;;5053714;28;20021;-79
2021/01/10 11:43:23;;;;;;;21.27;12.27;;;;;;;;;;5052683;28;20017;-82
2021/01/10 11:45:49;;;;;;;20.02;12.30;;;;;;;;;;5051833;28;20021;-79
2021/01/10 11:48:15;;;;;;;17.00;11.20;;;;;;;;;;5051494;28;20025;-80
2021/01/10 11:50:41;;;;;;;15.77;9.82;;;;;;;;;;5052314;28;20017;-81
2021/01/10 11:53:07;;;;;;;18.88;11.00;;;;;;;;;;5051439;28;20013;-78
2021/01/10 11:55:36;;;;;;;17.77;10.65;;;;;;;;;;5054100;28;20029;-86
2021/01/10 11:58:02;;;;;;;15.13;9.75;;;;;;;;;;5052899;28;20039;-80
2021/01/10 12:00:28;;;;;;;19.55;10.18;;;;;;;;;;5053273;28;20454;-81
2021/01/10 12:02:54;;;;;;;12.32;8.52;;;;;;;;;;5053775;28;20029;-81
2021/01/10 12:05:20;;;;;;;13.80;9.48;;;;;;;;;;5054298;28;20021;-81
2021/01/10 12:07:46;;;;;;;17.23;9.82;;;;;;;;;;5052764;28;20373;-80
2021/01/10 12:10:12;;;;;;;15.13;9.20;;;;;;;;;;5052751;28;20021;-84
2021/01/10 12:12:38;;;;;;;18.13;8.63;;;;;;;;;;5054449;28;20028;-82
2021/01/10 12:15:05;;;;;;;10.15;6.82;;;;;;;;;;5054266;28;20024;-83
2021/01/10 12:17:31;;;;;;;11.57;7.68;;;;;;;;;;5053761;28;20025;-82
2021/01/10 12:19:57;;;;;;;15.30;8.45;;;;;;;;;;5053019;28;20032;-79
2021/01/10 12:22:23;;;;;;;9.45;7.28;;;;;;;;;;5054947;28;20029;-82
2021/01/10 12:24:49;;;;;;;13.65;8.35;;;;;;;;;;5055581;28;20024;-82
2021/01/10 12:27:15;;;;;;;15.15;8.15;;;;;;;;;;5055596;28;20037;-81
2021/01/10 12:29:41;;;;;;;14.07;7.72;;;;;;;;;;5055660;28;20409;-80
2021/01/10 12:32:07;;;;;;;12.65;8.65;;;;;;;;;;5053191;28;20074;-82
2021/01/10 12:34:33;;;;;;;12.57;7.30;;;;;;;;;;5055358;28;20021;-83
2021/01/10 12:36:59;;;;;;;12.10;7.15;;;;;;;;;;5053346;28;20362;-83
2021/01/10 12:39:25;;;;;;;13.05;6.80;;;;;;;;;;5052695;28;20075;-83
2021/01/10 12:41:51;;;;;;;12.25;7.53;;;;;;;;;;5052484;28;20041;-84
2021/01/10 12:44:19;;;;;;;10.52;6.13;;;;;;;;;;5052713;28;20480;-83
2021/01/10 12:46:45;;;;;;;13.52;6.57;;;;;;;;;;5052631;28;20025;-82
2021/01/10 12:49:11;;;;;;;11.90;6.32;;;;;;;;;;5052130;28;20079;-82
2021/01/10 12:51:37;;;;;;;11.55;6.35;;;;;;;;;;5053581;28;20021;-82
2021/01/10 12:54:04;;;;;;;10.02;5.65;;;;;;;;;;5052088;28;20013;-82
2021/01/10 12:56:30;;;;;;;9.20;5.22;;;;;;;;;;5052050;28;20017;-81
2021/01/10 12:58:56;;;;;;;9.95;6.57;;;;;;;;;;5051845;28;20035;-82
2021/01/10 13:01:22;;;;;;;8.38;5.05;;;;;;;;;;5051738;28;20437;-83
2021/01/10 13:03:48;;;;;;;8.80;5.15;;;;;;;;;;5051935;28;20024;-85
2021/01/10 13:06:14;;;;;;;10.68;5.35;;;;;;;;;;5053677;28;20457;-85
2021/01/10 13:08:40;;;;;;;11.43;5.53;;;;;;;;;;5059179;28;20036;-85
2021/01/10 13:11:06;;;;;;;10.10;5.38;;;;;;;;;;5061919;28;20453;-84
2021/01/10 13:13:32;;;;;;;8.27;5.03;;;;;;;;;;5059684;28;20027;-85
2021/01/10 13:15:59;;;;;;;7.60;4.43;;;;;;;;;;5061114;28;20150;-84
2021/01/10 13:18:25;;;;;;;7.63;4.38;;;;;;;;;;5059801;28;20012;-84
2021/01/10 13:20:51;;;;;;;10.38;5.30;;;;;;;;;;5061214;28;20361;-84
2021/01/10 13:23:17;;;;;;;13.43;5.55;;;;;;;;;;5060147;28;20082;-84
2021/01/10 13:25:43;;;;;;;10.88;4.72;;;;;;;;;;5060511;28;20009;-83
2021/01/10 13:28:09;;;;;;;9.05;4.63;;;;;;;;;;5059459;28;20044;-83
2021/01/10 13:30:35;;;;;;;9.65;4.68;;;;;;;;;;5061988;28;20446;-85
2021/01/10 13:33:01;;;;;;;9.93;4.38;;;;;;;;;;5060164;28;20036;-80
2021/01/10 13:35:27;;;;;;;10.23;4.90;;;;;;;;;;5060998;28;20020;-81
2021/01/10 13:37:53;;;;;;;9.02;5.40;;;;;;;;;;5070709;28;20020;-81
2021/01/10 13:40:19;;;;;;;12.40;5.07;;;;;;;;;;5070361;28;20032;-80
2021/01/10 13:42:45;;;;;;;10.88;4.47;;;;;;;;;;5070396;28;20056;-80
2021/01/10 13:45:11;;;;;;;9.25;4.57;;;;;;;;;;5070467;28;20013;-81
2021/01/10 13:47:38;;;;;;;10.00;5.03;;;;;;;;;;5073125;28;20403;-81
2021/01/10 13:50:04;;;;;;;12.68;6.18;;;;;;;;;;5074732;28;20029;-81
2021/01/10 13:52:32;;;;;;;11.00;5.65;;;;;;;;;;5075846;28;20020;-80
2021/01/10 13:54:59;;;;;;;10.45;5.97;;;;;;;;;;5074240;28;20070;-79
2021/01/10 13:57:25;;;;;;;11.13;5.90;;;;;;;;;;5070486;28;20560;-80
2021/01/10 13:59:51;;;;;;;11.48;6.05;;;;;;;;;;5075458;28;20083;-80
2021/01/10 14:02:17;;;;;;;8.82;5.97;;;;;;;;;;5073767;28;20425;-80
2021/01/10 14:04:43;;;;;;;17.92;5.38;;;;;;;;;;5073917;28;20025;-81
2021/01/10 14:07:09;;;;;;;12.10;5.55;;;;;;;;;;5073622;28;20030;-81
2021/01/10 14:09:35;;;;;;;9.52;5.07;;;;;;;;;;5073616;28;20063;-80
2021/01/10 14:12:01;;;;;;;11.93;7.10;;;;;;;;;;5076472;28;20024;-78
2021/01/10 14:14:27;;;;;;;14.35;7.05;;;;;;;;;;5075079;28;20445;-79
2021/01/10 14:16:53;;;;;;;12.23;5.95;;;;;;;;;;5074825;28;20082;-79
2021/01/10 14:19:19;;;;;;;12.80;6.18;;;;;;;;;;5073348;28;20032;-78
2021/01/10 14:21:45;;;;;;;11.52;6.45;;;;;;;;;;5073975;28;20020;-78
2021/01/10 14:24:12;;;;;;;12.48;5.55;;;;;;;;;;5076846;28;20024;-81